AK74 weather

Public forecast

Using degrees Fahrenheit for public forecast. Weather courtesy of forecast.io.

Closest aviation weather report (METAR) to Kodiak Emergency/Spruce Cape Heliport

Closest report is Kodiak Airport, 5.7 nm (10.5 km) SW. Retrieved 2020/08/15 12:53 UTC (39 minutes ago):

PADQ 151253Z AUTO 30015KT CLR 17/07 A2973

Closest aviation forecast (TAF) to Kodiak Emergency/Spruce Cape Heliport

Closest forecast is Kodiak Airport, 5.7 nm (10.5 km) SW. Retrieved 2020/08/15 12:36 UTC (56 minutes ago):

TAF PADQ 151134Z 1512/1612 30011G20KT P6SM SKC FM152300 34012G20KT P6SM SKC FM160600 31011KT P6SM SKC